createdAt,value
2018-01-06T00:00:03.034Z,925.09
2018-01-06T00:00:31.192Z,925.12
2018-01-06T00:00:59.419Z,925.11
2018-01-06T00:01:27.440Z,925.12
2018-01-06T00:01:55.630Z,925.1
2018-01-06T00:02:23.859Z,925.11
2018-01-06T00:02:52.070Z,925.12
2018-01-06T00:03:20.120Z,925.1
2018-01-06T00:03:49.028Z,925.09
2018-01-06T00:05:00.239Z,925.11
2018-01-06T00:05:28.357Z,925.1
2018-01-06T00:05:56.618Z,925.11
2018-01-06T00:06:24.875Z,925.09
2018-01-06T00:06:52.900Z,925.08
2018-01-06T00:07:20.930Z,925.11
2018-01-06T00:07:49.114Z,925.09
2018-01-06T00:08:17.135Z,925.07
2018-01-06T00:08:45.351Z,925.1
2018-01-06T00:09:13.385Z,925.08
2018-01-06T00:09:41.528Z,925.14
2018-01-06T00:10:52.837Z,925.09
2018-01-06T00:11:20.949Z,925.14
2018-01-06T00:11:49.117Z,925.12
2018-01-06T00:12:17.270Z,925.15
2018-01-06T00:12:45.401Z,925.14
2018-01-06T00:13:13.612Z,925.22
2018-01-06T00:13:41.902Z,925.19
2018-01-06T00:14:10.027Z,925.22
2018-01-06T00:14:38.045Z,925.22
2018-01-06T00:15:06.170Z,925.24
2018-01-06T00:15:34.323Z,925.22
2018-01-06T00:16:45.636Z,925.25
2018-01-06T00:17:13.852Z,925.26
2018-01-06T00:17:42.116Z,925.27
2018-01-06T00:18:10.274Z,925.27
2018-01-06T00:18:38.504Z,925.26
2018-01-06T00:19:06.523Z,925.25
2018-01-06T00:19:34.807Z,925.27
2018-01-06T00:20:02.834Z,925.27
2018-01-06T00:20:31.005Z,925.26
2018-01-06T00:20:58.981Z,925.25
2018-01-06T00:21:27.173Z,925.26
2018-01-06T00:22:38.280Z,925.27
2018-01-06T00:23:06.492Z,925.32
2018-01-06T00:23:34.756Z,925.28
2018-01-06T00:24:03.005Z,925.33
2018-01-06T00:24:31.133Z,925.33
2018-01-06T00:24:59.147Z,925.31
2018-01-06T00:25:27.334Z,925.35
2018-01-06T00:25:55.360Z,925.35
2018-01-06T00:26:23.571Z,925.37
2018-01-06T00:26:51.600Z,925.35
2018-01-06T00:27:19.866Z,925.38
2018-01-06T00:28:31.223Z,925.4
2018-01-06T00:28:59.132Z,925.42
2018-01-06T00:29:27.396Z,925.47
2018-01-06T00:29:55.550Z,925.41
2018-01-06T00:30:23.574Z,925.41
2018-01-06T00:30:51.595Z,925.43
2018-01-06T00:31:19.883Z,925.44
2018-01-06T00:31:48.009Z,925.4
2018-01-06T00:32:16.121Z,925.43
2018-01-06T00:32:44.249Z,925.46
2018-01-06T00:33:12.397Z,925.44
2018-01-06T00:34:23.602Z,925.46
2018-01-06T00:34:51.717Z,925.44
2018-01-06T00:35:19.984Z,925.44
2018-01-06T00:35:48.233Z,925.47
2018-01-06T00:36:16.361Z,925.43
2018-01-06T00:36:44.591Z,925.46
2018-01-06T00:37:12.860Z,925.42
2018-01-06T00:37:40.993Z,925.43
2018-01-06T00:38:09.204Z,925.42
2018-01-06T00:38:37.237Z,925.42
2018-01-06T00:39:05.494Z,925.43
2018-01-06T00:40:16.808Z,925.39
2018-01-06T00:40:44.819Z,925.38
2018-01-06T00:41:12.979Z,925.38
2018-01-06T00:41:41.033Z,925.37
2018-01-06T00:42:09.060Z,925.4
2018-01-06T00:42:37.182Z,925.41
2018-01-06T00:43:05.269Z,925.38
2018-01-06T00:43:33.295Z,925.38
2018-01-06T00:44:01.505Z,925.36
2018-01-06T00:44:29.729Z,925.41
2018-01-06T00:44:57.988Z,925.46
2018-01-06T00:46:09.195Z,925.46
2018-01-06T00:46:37.306Z,925.45
2018-01-06T00:47:05.466Z,925.44
2018-01-06T00:47:33.716Z,925.46
2018-01-06T00:48:01.858Z,925.45
2018-01-06T00:48:29.970Z,925.43
2018-01-06T00:48:58.259Z,925.41
2018-01-06T00:49:26.281Z,925.42
2018-01-06T00:49:54.402Z,925.43
2018-01-06T00:50:22.533Z,925.42
2018-01-06T00:50:50.795Z,925.43
2018-01-06T00:52:02.102Z,925.43
2018-01-06T00:52:30.316Z,925.42
2018-01-06T00:52:58.484Z,925.43
2018-01-06T00:53:26.735Z,925.42
2018-01-06T00:53:54.864Z,925.41
2018-01-06T00:54:22.988Z,925.44
2018-01-06T00:54:51.273Z,925.44
2018-01-06T00:55:19.496Z,925.42
2018-01-06T00:55:47.629Z,925.44
2018-01-06T00:56:15.841Z,925.41
2018-01-06T00:56:44.098Z,925.45
2018-01-06T00:57:55.409Z,925.45
2018-01-06T00:58:23.621Z,925.43
2018-01-06T00:58:51.792Z,925.44
2018-01-06T00:59:19.945Z,925.42
2018-01-06T00:59:47.979Z,925.43
2018-01-06T01:00:16.099Z,925.42
2018-01-06T01:00:44.289Z,925.44
2018-01-06T01:01:12.420Z,925.44
2018-01-06T01:01:40.633Z,925.44
2018-01-06T01:02:08.762Z,925.43
2018-01-06T01:02:36.722Z,925.43
2018-01-06T01:03:48.285Z,925.45
2018-01-06T01:04:16.397Z,925.45
2018-01-06T01:04:44.661Z,925.44
2018-01-06T01:05:12.915Z,925.46
2018-01-06T01:05:41.038Z,925.49
2018-01-06T01:06:09.260Z,925.49
2018-01-06T01:06:37.450Z,925.49
2018-01-06T01:07:05.479Z,925.53
2018-01-06T01:07:33.498Z,925.52
2018-01-06T01:08:01.728Z,925.53
2018-01-06T01:08:29.687Z,925.55
2018-01-06T01:09:40.896Z,925.54
2018-01-06T01:10:09.107Z,925.54
2018-01-06T01:10:37.419Z,925.52
2018-01-06T01:11:05.671Z,925.53
2018-01-06T01:11:33.905Z,925.53
2018-01-06T01:12:02.021Z,925.51
2018-01-06T01:12:29.906Z,925.5
2018-01-06T01:14:38.235Z,925.49
2018-01-06T01:15:06.275Z,925.5
2018-01-06T01:15:34.469Z,925.53
2018-01-06T01:16:02.537Z,925.47
2018-01-06T01:16:30.651Z,925.53
2018-01-06T01:16:58.794Z,925.55
2018-01-06T01:17:26.950Z,925.55
2018-01-06T01:17:55.182Z,925.57
2018-01-06T01:18:23.324Z,925.53
2018-01-06T01:18:51.616Z,925.55
2018-01-06T01:19:19.699Z,925.53
2018-01-06T01:20:31.782Z,925.55
2018-01-06T01:21:00.049Z,925.54
2018-01-06T01:21:28.208Z,925.51
2018-01-06T01:21:56.460Z,925.55
2018-01-06T01:22:24.377Z,925.54
2018-01-06T01:22:52.523Z,925.51
2018-01-06T01:23:20.777Z,925.52
2018-01-06T01:23:48.912Z,925.53
2018-01-06T01:24:17.049Z,925.51
2018-01-06T01:24:45.333Z,925.53
2018-01-06T01:25:13.331Z,925.53
2018-01-06T01:26:24.549Z,925.52
2018-01-06T01:26:52.813Z,925.49
2018-01-06T01:27:21.067Z,925.49
2018-01-06T01:27:49.216Z,925.47
2018-01-06T01:28:17.233Z,925.45
2018-01-06T01:28:45.370Z,925.47
2018-01-06T01:29:13.421Z,925.44
2018-01-06T01:29:41.560Z,925.43
2018-01-06T01:30:09.696Z,925.44
2018-01-06T01:30:37.976Z,925.4
2018-01-06T01:31:06.172Z,925.37
2018-01-06T01:32:17.291Z,925.38
2018-01-06T01:32:45.554Z,925.36
2018-01-06T01:33:13.811Z,925.4
2018-01-06T01:33:41.954Z,925.36
2018-01-06T01:34:10.069Z,925.39
2018-01-06T01:34:38.314Z,925.41
2018-01-06T01:35:06.469Z,925.4
2018-01-06T01:35:34.608Z,925.41
2018-01-06T01:36:02.848Z,925.39
2018-01-06T01:36:31.024Z,925.42
2018-01-06T01:36:59.320Z,925.43
2018-01-06T01:38:10.538Z,925.41
2018-01-06T01:38:38.806Z,925.44
2018-01-06T01:39:07.062Z,925.47
2018-01-06T01:39:35.986Z,925.44
2018-01-06T01:40:04.203Z,925.42
2018-01-06T01:40:32.445Z,925.4
2018-01-06T01:41:00.598Z,925.38
2018-01-06T01:41:28.836Z,925.39
2018-01-06T01:41:56.988Z,925.44
2018-01-06T01:42:25.070Z,925.45
2018-01-06T01:42:53.268Z,925.44
2018-01-06T01:44:04.490Z,925.42
2018-01-06T01:44:32.775Z,925.41
2018-01-06T01:45:00.839Z,925.42
2018-01-06T01:45:28.986Z,925.33
2018-01-06T01:45:57.099Z,925.36
2018-01-06T01:46:25.341Z,925.36
2018-01-06T01:46:53.391Z,925.37
2018-01-06T01:47:21.529Z,925.39
2018-01-06T01:47:49.667Z,925.37
2018-01-06T01:48:17.851Z,925.35
2018-01-06T01:48:45.849Z,925.37
2018-01-06T01:49:56.915Z,925.38
2018-01-06T01:50:25.184Z,925.37
2018-01-06T01:50:53.346Z,925.37
2018-01-06T01:51:21.599Z,925.38
2018-01-06T01:51:49.709Z,925.34
2018-01-06T01:52:17.749Z,925.39
2018-01-06T01:52:45.900Z,925.38
2018-01-06T01:53:13.945Z,925.41
2018-01-06T01:53:42.182Z,925.38
2018-01-06T01:54:10.368Z,925.42
2018-01-06T01:54:38.820Z,925.41
2018-01-06T01:55:49.939Z,925.42
2018-01-06T01:56:18.133Z,925.42
2018-01-06T01:56:46.293Z,925.42
2018-01-06T01:57:14.443Z,925.42
2018-01-06T01:57:42.358Z,925.43
2018-01-06T01:58:10.497Z,925.39
2018-01-06T01:58:38.662Z,925.44
2018-01-06T01:59:06.900Z,925.41
2018-01-06T01:59:34.838Z,925.4
2018-01-06T02:00:02.921Z,925.36
2018-01-06T02:00:31.116Z,925.39
2018-01-06T02:01:42.236Z,925.37
2018-01-06T02:02:10.306Z,925.34
2018-01-06T02:02:38.560Z,925.35
2018-01-06T02:03:06.708Z,925.3
2018-01-06T02:03:34.922Z,925.31
2018-01-06T02:04:03.066Z,925.32
2018-01-06T02:04:31.318Z,925.3
2018-01-06T02:04:59.457Z,925.31
2018-01-06T02:05:27.687Z,925.29
2018-01-06T02:05:55.968Z,925.32
2018-01-06T02:06:24.160Z,925.32
2018-01-06T02:07:35.377Z,925.27
2018-01-06T02:08:03.646Z,925.32
2018-01-06T02:08:31.806Z,925.29
2018-01-06T02:08:59.957Z,925.27
2018-01-06T02:09:28.073Z,925.31
2018-01-06T02:09:56.216Z,925.29
2018-01-06T02:10:24.464Z,925.3
2018-01-06T02:10:52.702Z,925.28
2018-01-06T02:11:20.936Z,925.33
2018-01-06T02:11:48.922Z,925.3
2018-01-06T02:12:17.120Z,925.31
2018-01-06T02:13:28.238Z,925.33
2018-01-06T02:13:56.405Z,925.27
2018-01-06T02:14:24.556Z,925.27
2018-01-06T02:14:52.704Z,925.23
2018-01-06T02:15:20.819Z,925.25
2018-01-06T02:15:48.959Z,925.23
2018-01-06T02:16:17.113Z,925.2
2018-01-06T02:16:45.256Z,925.21
2018-01-06T02:17:13.377Z,925.18
2018-01-06T02:17:41.564Z,925.16
2018-01-06T02:18:09.856Z,925.19
2018-01-06T02:19:21.072Z,925.19
2018-01-06T02:19:49.241Z,925.17
2018-01-06T02:20:17.397Z,925.17
2018-01-06T02:20:45.539Z,925.19
2018-01-06T02:21:13.755Z,925.19
2018-01-06T02:21:41.891Z,925.19
2018-01-06T02:22:10.143Z,925.22
2018-01-06T02:22:38.178Z,925.22
2018-01-06T02:23:06.314Z,925.18
2018-01-06T02:23:34.394Z,925.19
2018-01-06T02:24:02.485Z,925.14
2018-01-06T02:25:13.804Z,925.16
2018-01-06T02:25:41.774Z,925.15
2018-01-06T02:26:09.929Z,925.14
2018-01-06T02:26:37.984Z,925.11
2018-01-06T02:27:06.196Z,925.09
2018-01-06T02:27:34.440Z,925.08
2018-01-06T02:28:02.494Z,925.07
2018-01-06T02:28:30.437Z,925.11
2018-01-06T02:28:58.666Z,925.1
2018-01-06T02:29:26.950Z,925.05
2018-01-06T02:29:55.142Z,925.08
2018-01-06T02:31:06.166Z,925.06
2018-01-06T02:31:34.334Z,925.02
2018-01-06T02:32:02.488Z,924.99
2018-01-06T02:32:30.636Z,925.03
2018-01-06T02:32:58.748Z,925
2018-01-06T02:33:26.892Z,925.03
2018-01-06T02:33:54.942Z,924.99
2018-01-06T02:34:22.975Z,924.99
2018-01-06T02:34:51.113Z,925.02
2018-01-06T02:35:19.203Z,925
2018-01-06T02:35:47.384Z,925
2018-01-06T02:36:58.498Z,924.99
2018-01-06T02:37:26.662Z,924.94
2018-01-06T02:37:54.721Z,924.97
2018-01-06T02:38:22.877Z,924.92
2018-01-06T02:38:51.089Z,924.95
2018-01-06T02:39:19.332Z,924.96
2018-01-06T02:39:47.585Z,924.93
2018-01-06T02:40:15.718Z,924.96
2018-01-06T02:40:43.855Z,924.92
2018-01-06T02:41:11.933Z,924.93
2018-01-06T02:41:40.379Z,924.96
2018-01-06T02:42:51.600Z,924.9
2018-01-06T02:43:19.775Z,924.88
2018-01-06T02:43:47.929Z,924.91
2018-01-06T02:44:15.975Z,924.92
2018-01-06T02:44:44.190Z,924.92
2018-01-06T02:45:12.234Z,924.89
2018-01-06T02:45:40.486Z,924.9
2018-01-06T02:46:08.617Z,924.88
2018-01-06T02:46:36.756Z,924.86
2018-01-06T02:47:04.935Z,924.86
2018-01-06T02:47:33.431Z,924.85
2018-01-06T02:48:44.745Z,924.86
2018-01-06T02:49:12.908Z,924.82
2018-01-06T02:49:41.064Z,924.85
2018-01-06T02:50:09.214Z,924.85
2018-01-06T02:50:37.326Z,924.85
2018-01-06T02:51:05.468Z,924.85
2018-01-06T02:51:33.619Z,924.83
2018-01-06T02:52:01.748Z,924.84
2018-01-06T02:52:29.883Z,924.85
2018-01-06T02:52:57.864Z,924.86
2018-01-06T02:53:26.058Z,924.89
2018-01-06T02:54:37.067Z,924.87
2018-01-06T02:55:05.340Z,924.89
2018-01-06T02:55:33.596Z,924.94
2018-01-06T02:56:01.745Z,924.89
2018-01-06T02:56:30.748Z,924.91
2018-01-06T02:56:58.891Z,924.93
2018-01-06T02:57:27.048Z,924.86
2018-01-06T02:57:55.079Z,924.86
2018-01-06T02:58:23.316Z,924.86
2018-01-06T02:58:51.495Z,924.83
2018-01-06T02:59:19.492Z,924.85
2018-01-06T03:00:30.814Z,924.83
2018-01-06T03:00:58.988Z,924.8
2018-01-06T03:01:27.243Z,924.77
2018-01-06T03:01:55.500Z,924.77
2018-01-06T03:02:23.612Z,924.76
2018-01-06T03:02:51.758Z,924.78
2018-01-06T03:03:20.007Z,924.75
2018-01-06T03:03:48.143Z,924.77
2018-01-06T03:04:16.282Z,924.74
2018-01-06T03:04:44.562Z,924.72
2018-01-06T03:05:12.760Z,924.72
2018-01-06T03:06:24.087Z,924.74
2018-01-06T03:06:52.145Z,924.69
2018-01-06T03:07:20.302Z,924.7
2018-01-06T03:07:48.554Z,924.7
2018-01-06T03:08:16.671Z,924.64
2018-01-06T03:08:44.714Z,924.63
2018-01-06T03:09:12.955Z,924.67
2018-01-06T03:09:41.184Z,924.64
2018-01-06T03:10:09.429Z,924.66
2018-01-06T03:10:37.611Z,924.64
2018-01-06T03:11:06.067Z,924.6
2018-01-06T03:12:17.384Z,924.56
2018-01-06T03:12:45.650Z,924.61
2018-01-06T03:13:13.902Z,924.59
2018-01-06T03:13:42.048Z,924.59
2018-01-06T03:14:10.166Z,924.56
2018-01-06T03:14:38.407Z,924.59
2018-01-06T03:15:06.464Z,924.59
2018-01-06T03:15:34.497Z,924.57
2018-01-06T03:16:02.630Z,924.61
2018-01-06T03:16:30.912Z,924.6
2018-01-06T03:16:59.108Z,924.58
2018-01-06T03:18:10.221Z,924.62
2018-01-06T03:18:38.388Z,924.63
2018-01-06T03:19:06.546Z,924.64
2018-01-06T03:19:34.599Z,924.62
2018-01-06T03:20:02.611Z,924.64
2018-01-06T03:20:30.755Z,924.62
2018-01-06T03:20:59.004Z,924.62
2018-01-06T03:21:27.241Z,924.61
2018-01-06T03:21:55.470Z,924.6
2018-01-06T03:22:23.653Z,924.6
2018-01-06T03:22:51.849Z,924.59
2018-01-06T03:24:03.071Z,924.55
2018-01-06T03:24:31.240Z,924.58
2018-01-06T03:24:59.394Z,924.58
2018-01-06T03:25:27.641Z,924.58
2018-01-06T03:25:55.850Z,924.6
2018-01-06T03:26:24.086Z,924.58
2018-01-06T03:26:52.337Z,924.55
2018-01-06T03:27:20.477Z,924.54
2018-01-06T03:27:48.731Z,924.53
2018-01-06T03:28:17.004Z,924.49
2018-01-06T03:28:45.304Z,924.49
2018-01-06T03:29:56.622Z,924.46
2018-01-06T03:30:24.797Z,924.49
2018-01-06T03:30:53.061Z,924.45
2018-01-06T03:31:21.204Z,924.47
2018-01-06T03:31:49.320Z,924.49
2018-01-06T03:32:17.564Z,924.46
2018-01-06T03:32:45.719Z,924.48
2018-01-06T03:33:13.856Z,924.44
2018-01-06T03:33:41.997Z,924.44
2018-01-06T03:34:10.189Z,924.46
2018-01-06T03:34:38.488Z,924.46
2018-01-06T03:35:49.610Z,924.47
2018-01-06T03:36:17.786Z,924.44
2018-01-06T03:36:46.046Z,924.45
2018-01-06T03:37:14.295Z,924.46
2018-01-06T03:37:42.515Z,924.49
2018-01-06T03:38:10.754Z,924.45
2018-01-06T03:38:38.906Z,924.42
2018-01-06T03:39:07.049Z,924.46
2018-01-06T03:39:35.286Z,924.44
2018-01-06T03:40:03.469Z,924.43
2018-01-06T03:40:31.670Z,924.45
2018-01-06T03:41:42.987Z,924.48
2018-01-06T03:42:11.152Z,924.44
2018-01-06T03:42:39.411Z,924.45
2018-01-06T03:43:07.657Z,924.45
2018-01-06T03:43:35.876Z,924.46
2018-01-06T03:44:04.114Z,924.42
2018-01-06T03:44:32.174Z,924.47
2018-01-06T03:45:00.318Z,924.43
2018-01-06T03:45:28.549Z,924.41
2018-01-06T03:45:56.744Z,924.44
2018-01-06T03:46:25.049Z,924.43
2018-01-06T03:47:36.268Z,924.45
2018-01-06T03:48:04.440Z,924.46
2018-01-06T03:48:32.698Z,924.46
2018-01-06T03:49:00.947Z,924.48
2018-01-06T03:49:29.163Z,924.45
2018-01-06T03:49:57.399Z,924.46
2018-01-06T03:50:25.555Z,924.44
2018-01-06T03:50:53.786Z,924.45
2018-01-06T03:51:22.005Z,924.42
2018-01-06T03:51:50.245Z,924.44
2018-01-06T03:52:18.512Z,924.44
2018-01-06T03:53:29.809Z,924.45
2018-01-06T03:53:58.021Z,924.41
2018-01-06T03:54:26.186Z,924.46
2018-01-06T03:54:54.442Z,924.4
2018-01-06T03:55:22.574Z,924.38
2018-01-06T03:55:50.699Z,924.43
2018-01-06T03:56:18.894Z,924.44
2018-01-06T03:56:47.030Z,924.41
2018-01-06T03:57:15.244Z,924.43
2018-01-06T03:57:43.371Z,924.44
2018-01-06T03:58:11.528Z,924.46
2018-01-06T03:59:22.738Z,924.42
2018-01-06T03:59:50.952Z,924.41
2018-01-06T04:00:19.216Z,924.41
2018-01-06T04:00:47.376Z,924.39
2018-01-06T04:01:15.516Z,924.41
2018-01-06T04:01:43.733Z,924.36
2018-01-06T04:02:11.918Z,924.37
2018-01-06T04:02:40.047Z,924.34
2018-01-06T04:03:08.252Z,924.33
2018-01-06T04:03:36.375Z,924.31
2018-01-06T04:04:04.633Z,924.28
2018-01-06T04:05:15.843Z,924.3
2018-01-06T04:05:44.060Z,924.25
2018-01-06T04:06:12.324Z,924.27
2018-01-06T04:06:40.584Z,924.25
2018-01-06T04:07:08.710Z,924.29
2018-01-06T04:07:36.828Z,924.27
2018-01-06T04:08:05.111Z,924.25
2018-01-06T04:08:33.243Z,924.28
2018-01-06T04:09:01.351Z,924.29
2018-01-06T04:09:29.581Z,924.29
2018-01-06T04:09:57.737Z,924.27
2018-01-06T04:11:08.950Z,924.26
2018-01-06T04:11:37.063Z,924.25
2018-01-06T04:12:05.227Z,924.26
2018-01-06T04:12:33.484Z,924.22
2018-01-06T04:13:01.715Z,924.19
2018-01-06T04:13:29.538Z,924.22
2018-01-06T04:13:57.726Z,924.18
2018-01-06T04:14:25.755Z,924.17
2018-01-06T04:14:53.968Z,924.17
2018-01-06T04:15:22.104Z,924.14
2018-01-06T04:15:50.362Z,924.15
2018-01-06T04:17:01.676Z,924.15
2018-01-06T04:17:29.886Z,924.13
2018-01-06T04:17:57.953Z,924.09
2018-01-06T04:18:26.109Z,924.11
2018-01-06T04:18:54.343Z,924.14
2018-01-06T04:19:22.363Z,924.1
2018-01-06T04:19:50.451Z,924.14
2018-01-06T04:20:18.682Z,924.15
2018-01-06T04:20:46.696Z,924.14
2018-01-06T04:21:14.834Z,924.15
2018-01-06T04:21:43.093Z,924.13
2018-01-06T04:22:54.404Z,924.12
2018-01-06T04:23:22.616Z,924.13
2018-01-06T04:23:50.581Z,924.15
2018-01-06T04:24:18.835Z,924.14
2018-01-06T04:24:46.971Z,924.18
2018-01-06T04:25:15.194Z,924.12
2018-01-06T04:25:43.381Z,924.09
2018-01-06T04:26:11.508Z,924.11
2018-01-06T04:26:39.726Z,924.06
2018-01-06T04:27:07.764Z,924.06
2018-01-06T04:27:35.926Z,924.05
2018-01-06T04:28:47.138Z,924.06
2018-01-06T04:29:15.248Z,924.03
2018-01-06T04:29:43.312Z,924.04
2018-01-06T04:30:11.467Z,924.03
2018-01-06T04:30:39.598Z,924
2018-01-06T04:31:07.616Z,924.04
2018-01-06T04:31:35.800Z,924.03
2018-01-06T04:32:04.029Z,924.06
2018-01-06T04:32:32.151Z,924.03
2018-01-06T04:33:00.280Z,924.06
2018-01-06T04:33:28.766Z,924.03
2018-01-06T04:34:40.072Z,924.05
2018-01-06T04:35:08.284Z,924.03
2018-01-06T04:35:36.339Z,924.03
2018-01-06T04:36:04.593Z,924.03
2018-01-06T04:36:32.732Z,924.04
2018-01-06T04:37:00.949Z,924.02
2018-01-06T04:37:29.042Z,924.03
2018-01-06T04:37:57.269Z,924
2018-01-06T04:38:25.381Z,924.03
2018-01-06T04:38:53.607Z,924
2018-01-06T04:39:21.663Z,924
2018-01-06T04:40:32.766Z,923.97
2018-01-06T04:41:00.876Z,923.97
2018-01-06T04:41:29.140Z,923.98
2018-01-06T04:41:57.197Z,923.97
2018-01-06T04:42:25.420Z,923.96
2018-01-06T04:42:53.440Z,923.98
2018-01-06T04:43:21.620Z,923.96
2018-01-06T04:43:49.649Z,923.99
2018-01-06T04:44:17.864Z,923.99
2018-01-06T04:44:45.890Z,923.98
2018-01-06T04:45:14.138Z,923.97
2018-01-06T04:46:25.447Z,923.98
2018-01-06T04:46:53.461Z,923.96
2018-01-06T04:47:21.725Z,923.94
2018-01-06T04:47:49.878Z,923.93
2018-01-06T04:48:17.910Z,923.96
2018-01-06T04:48:46.126Z,923.9
2018-01-06T04:49:14.214Z,923.88
2018-01-06T04:49:42.441Z,923.92
2018-01-06T04:50:10.452Z,923.89
2018-01-06T04:50:38.583Z,923.88
2018-01-06T04:51:06.736Z,923.91
2018-01-06T04:52:18.048Z,923.9
2018-01-06T04:52:46.256Z,923.9
2018-01-06T04:53:14.417Z,923.88
2018-01-06T04:53:42.571Z,923.9
2018-01-06T04:54:10.708Z,923.9
2018-01-06T04:54:38.825Z,923.88
2018-01-06T04:55:06.914Z,923.89
2018-01-06T04:55:35.039Z,923.95
2018-01-06T04:56:02.954Z,923.95
2018-01-06T04:56:30.986Z,923.96
2018-01-06T04:56:59.241Z,923.95
2018-01-06T04:58:10.552Z,923.95
2018-01-06T04:58:38.763Z,923.92
2018-01-06T04:59:07.030Z,923.89
2018-01-06T04:59:35.422Z,923.91
2018-01-06T05:00:03.553Z,923.89
2018-01-06T05:00:31.672Z,923.89
2018-01-06T05:00:59.863Z,923.88
2018-01-06T05:01:27.986Z,923.87
2018-01-06T05:01:56.202Z,923.88
2018-01-06T05:02:24.335Z,923.91
2018-01-06T05:02:52.593Z,923.86
2018-01-06T05:04:03.900Z,923.85
2018-01-06T05:04:32.111Z,923.86
2018-01-06T05:05:00.374Z,923.83
2018-01-06T05:05:28.629Z,923.82
2018-01-06T05:05:56.858Z,923.83
2018-01-06T05:06:25.072Z,923.85
2018-01-06T05:06:53.362Z,923.84
2018-01-06T05:07:21.385Z,923.81
2018-01-06T05:07:49.597Z,923.8
2018-01-06T05:08:17.528Z,923.8
2018-01-06T05:08:45.588Z,923.8
2018-01-06T05:09:56.794Z,923.82
2018-01-06T05:10:25.005Z,923.78
2018-01-06T05:10:53.270Z,923.79
2018-01-06T05:11:21.517Z,923.78
2018-01-06T05:11:49.650Z,923.78
2018-01-06T05:12:17.672Z,923.8
2018-01-06T05:12:45.954Z,923.77
2018-01-06T05:13:14.091Z,923.72
2018-01-06T05:13:42.208Z,923.74
2018-01-06T05:14:10.149Z,923.74
2018-01-06T05:14:38.404Z,923.74
2018-01-06T05:15:49.513Z,923.72
2018-01-06T05:16:17.623Z,923.68
2018-01-06T05:16:45.786Z,923.71
2018-01-06T05:17:13.943Z,923.72
2018-01-06T05:17:42.062Z,923.71
2018-01-06T05:18:10.280Z,923.69
2018-01-06T05:18:38.464Z,923.71
2018-01-06T05:19:06.586Z,923.7
2018-01-06T05:19:34.705Z,923.7
2018-01-06T05:20:02.938Z,923.74
2018-01-06T05:20:30.997Z,923.69
2018-01-06T05:21:42.311Z,923.71
2018-01-06T05:22:10.424Z,923.7
2018-01-06T05:22:38.590Z,923.7
2018-01-06T05:23:06.746Z,923.66
2018-01-06T05:23:34.878Z,923.68
2018-01-06T05:24:02.892Z,923.66
2018-01-06T05:24:30.973Z,923.67
2018-01-06T05:24:59.001Z,923.69
2018-01-06T05:25:27.116Z,923.7
2018-01-06T05:25:55.251Z,923.69
2018-01-06T05:26:23.510Z,923.67
2018-01-06T05:27:34.616Z,923.68
2018-01-06T05:28:02.731Z,923.67
2018-01-06T05:28:30.896Z,923.68
2018-01-06T05:28:59.148Z,923.69
2018-01-06T05:29:27.377Z,923.68
2018-01-06T05:29:55.394Z,923.7
2018-01-06T05:30:23.688Z,923.67
2018-01-06T05:30:51.818Z,923.68
2018-01-06T05:31:20.029Z,923.67
2018-01-06T05:31:48.153Z,923.66
2018-01-06T05:32:16.307Z,923.66
2018-01-06T05:33:27.515Z,923.66
2018-01-06T05:33:55.628Z,923.67
2018-01-06T05:34:23.791Z,923.65
2018-01-06T05:34:52.044Z,923.64
2018-01-06T05:35:20.170Z,923.64
2018-01-06T05:35:48.190Z,923.62
2018-01-06T05:36:16.375Z,923.6
2018-01-06T05:36:44.504Z,923.59
2018-01-06T05:37:12.522Z,923.6
2018-01-06T05:37:40.749Z,923.56
2018-01-06T05:38:09.008Z,923.57
2018-01-06T05:39:20.220Z,923.59
2018-01-06T05:39:48.430Z,923.53
2018-01-06T05:40:16.695Z,923.52
2018-01-06T05:40:44.751Z,923.52
2018-01-06T05:41:12.981Z,923.55
2018-01-06T05:41:41.196Z,923.52
2018-01-06T05:42:09.477Z,923.55
2018-01-06T05:42:37.705Z,923.54
2018-01-06T05:43:05.826Z,923.52
2018-01-06T05:43:34.058Z,923.55
2018-01-06T05:44:02.309Z,923.51
2018-01-06T05:45:13.620Z,923.51
2018-01-06T05:45:41.828Z,923.52
2018-01-06T05:46:10.093Z,923.53
2018-01-06T05:46:38.141Z,923.5
2018-01-06T05:47:06.169Z,923.49
2018-01-06T05:47:34.187Z,923.5
2018-01-06T05:48:02.377Z,923.49
2018-01-06T05:48:30.406Z,923.51
2018-01-06T05:48:58.518Z,923.53
2018-01-06T05:49:26.654Z,923.55
2018-01-06T05:49:54.810Z,923.55
2018-01-06T05:51:05.920Z,923.52
2018-01-06T05:51:34.134Z,923.54
2018-01-06T05:52:02.299Z,923.55
2018-01-06T05:52:30.557Z,923.54
2018-01-06T05:52:58.790Z,923.53
2018-01-06T05:53:27.009Z,923.5
2018-01-06T05:53:55.092Z,923.52
2018-01-06T05:54:23.319Z,923.48
2018-01-06T05:54:51.431Z,923.49
2018-01-06T05:55:19.559Z,923.5
2018-01-06T05:55:47.715Z,923.5
2018-01-06T05:56:58.823Z,923.49
2018-01-06T05:57:27.037Z,923.45
2018-01-06T05:57:55.304Z,923.5
2018-01-06T05:58:23.553Z,923.48
2018-01-06T05:58:51.775Z,923.5
2018-01-06T05:59:19.997Z,923.48
2018-01-06T05:59:48.277Z,923.51
2018-01-06T06:00:16.303Z,923.49
2018-01-06T06:00:44.322Z,923.48
2018-01-06T06:01:12.354Z,923.48
2018-01-06T06:01:40.514Z,923.51
2018-01-06T06:02:51.625Z,923.52
2018-01-06T06:03:19.838Z,923.54
2018-01-06T06:03:48.103Z,923.5
2018-01-06T06:04:16.356Z,923.52
2018-01-06T06:04:44.488Z,923.49
2018-01-06T06:05:12.509Z,923.49
2018-01-06T06:05:40.597Z,923.51
2018-01-06T06:06:08.722Z,923.45
2018-01-06T06:06:36.936Z,923.45
2018-01-06T06:07:05.168Z,923.44
2018-01-06T06:07:33.428Z,923.44
2018-01-06T06:08:44.737Z,923.46
2018-01-06T06:09:12.949Z,923.41
2018-01-06T06:09:41.207Z,923.42
2018-01-06T06:10:09.464Z,923.44
2018-01-06T06:10:37.698Z,923.46
2018-01-06T06:11:05.813Z,923.44
2018-01-06T06:11:34.101Z,923.45
2018-01-06T06:12:02.227Z,923.44
2018-01-06T06:12:30.440Z,923.42
2018-01-06T06:12:58.565Z,923.45
2018-01-06T06:13:26.723Z,923.44
2018-01-06T06:14:37.935Z,923.43
2018-01-06T06:15:06.144Z,923.47
2018-01-06T06:15:34.307Z,923.45
2018-01-06T06:16:02.352Z,923.44
2018-01-06T06:16:30.478Z,923.44
2018-01-06T06:16:58.695Z,923.42
2018-01-06T06:17:26.885Z,923.42
2018-01-06T06:17:55.110Z,923.44
2018-01-06T06:18:23.128Z,923.38
2018-01-06T06:18:51.270Z,923.39
2018-01-06T06:19:19.651Z,923.37
2018-01-06T06:20:30.960Z,923.37
2018-01-06T06:20:59.075Z,923.38
2018-01-06T06:21:27.243Z,923.35
2018-01-06T06:21:55.497Z,923.35
2018-01-06T06:22:23.530Z,923.33
2018-01-06T06:22:51.746Z,923.34
2018-01-06T06:23:19.930Z,923.34
2018-01-06T06:23:48.154Z,923.32
2018-01-06T06:24:16.370Z,923.3
2018-01-06T06:24:44.503Z,923.31
2018-01-06T06:25:12.563Z,923.33
2018-01-06T06:26:23.874Z,923.29
2018-01-06T06:26:51.987Z,923.32
2018-01-06T06:27:20.255Z,923.29
2018-01-06T06:27:48.508Z,923.32
2018-01-06T06:28:16.733Z,923.31
2018-01-06T06:28:44.756Z,923.33
2018-01-06T06:29:12.943Z,923.34
2018-01-06T06:29:41.176Z,923.34
2018-01-06T06:30:09.290Z,923.33
2018-01-06T06:30:37.423Z,923.33
2018-01-06T06:31:05.679Z,923.29
2018-01-06T06:32:16.886Z,923.28
2018-01-06T06:32:44.996Z,923.34
2018-01-06T06:33:13.260Z,923.33
2018-01-06T06:33:41.655Z,923.36
2018-01-06T06:34:09.787Z,923.36
2018-01-06T06:34:37.901Z,923.36
2018-01-06T06:35:06.093Z,923.36
2018-01-06T06:35:34.313Z,923.37
2018-01-06T06:36:02.432Z,923.38
2018-01-06T06:36:30.550Z,923.4
2018-01-06T06:36:58.708Z,923.39
2018-01-06T06:38:10.020Z,923.39
2018-01-06T06:38:38.232Z,923.37
2018-01-06T06:39:06.493Z,923.36
2018-01-06T06:39:34.747Z,923.34
2018-01-06T06:40:02.773Z,923.36
2018-01-06T06:40:30.998Z,923.36
2018-01-06T06:40:59.185Z,923.37
2018-01-06T06:41:27.113Z,923.37
2018-01-06T06:41:55.135Z,923.37
2018-01-06T06:42:23.259Z,923.32